sensor_id;sensor_type;location;lat;lon;timestamp;temperature;humidity
18974;DHT22;9621;48.690;9.466;2024-01-15T00:01:52;-3.70;99.90
18974;DHT22;9621;48.690;9.466;2024-01-15T00:04:20;-3.60;99.90
18974;DHT22;9621;48.690;9.466;2024-01-15T00:06:47;-3.70;99.90
18974;DHT22;9621;48.690;9.466;2024-01-15T00:09:14;-3.60;99.90
18974;DHT22;9621;48.690;9.466;2024-01-15T00:11:41;-3.60;99.90
18974;DHT22;9621;48.690;9.466;2024-01-15T00:14:08;-3.60;99.90
18974;DHT22;9621;48.690;9.466;2024-01-15T00:16:36;-3.60;99.90
18974;DHT22;9621;48.690;9.466;2024-01-15T00:19:03;-3.50;99.90
18974;DHT22;9621;48.690;9.466;2024-01-15T00:21:30;-3.50;99.90
18974;DHT22;9621;48.690;9.466;2024-01-15T00:23:57;-3.50;99.90
18974;DHT22;9621;48.690;9.466;2024-01-15T00:26:24;-3.40;99.90
18974;DHT22;9621;48.690;9.466;2024-01-15T00:28:51;-3.40;99.90
18974;DHT22;9621;48.690;9.466;2024-01-15T00:31:18;-1.80;99.90
18974;DHT22;9621;48.690;9.466;2024-01-15T00:33:46;-3.40;99.90
18974;DHT22;9621;48.690;9.466;2024-01-15T00:36:13;-3.40;99.90
18974;DHT22;9621;48.690;9.466;2024-01-15T00:38:42;-3.30;99.90
18974;DHT22;9621;48.690;9.466;2024-01-15T00:41:10;-3.30;99.90
18974;DHT22;9621;48.690;9.466;2024-01-15T00:43:37;-2.90;99.90
18974;DHT22;9621;48.690;9.466;2024-01-15T00:46:04;-3.30;99.90
18974;DHT22;9621;48.690;9.466;2024-01-15T00:48:31;-3.20;99.90
18974;DHT22;9621;48.690;9.466;2024-01-15T00:50:59;-3.30;99.90
18974;DHT22;9621;48.690;9.466;2024-01-15T00:53:27;-3.30;99.90
18974;DHT22;9621;48.690;9.466;2024-01-15T00:55:54;-3.40;99.90
18974;DHT22;9621;48.690;9.466;2024-01-15T00:58:20;-3.40;99.90
18974;DHT22;9621;48.690;9.466;2024-01-15T01:00:47;-3.40;99.90
18974;DHT22;9621;48.690;9.466;2024-01-15T01:03:14;-3.40;99.90
18974;DHT22;9621;48.690;9.466;2024-01-15T01:05:41;-3.40;99.90
18974;DHT22;9621;48.690;9.466;2024-01-15T01:08:10;-3.40;99.90
18974;DHT22;9621;48.690;9.466;2024-01-15T01:10:37;-3.40;99.90
18974;DHT22;9621;48.690;9.466;2024-01-15T01:13:04;-3.40;99.90
18974;DHT22;9621;48.690;9.466;2024-01-15T01:15:31;-3.50;99.90
18974;DHT22;9621;48.690;9.466;2024-01-15T01:17:58;-3.50;99.90
18974;DHT22;9621;48.690;9.466;2024-01-15T01:20:24;-3.50;99.90
18974;DHT22;9621;48.690;9.466;2024-01-15T01:22:51;-3.50;99.90
18974;DHT22;9621;48.690;9.466;2024-01-15T01:25:19;-3.50;99.90
18974;DHT22;9621;48.690;9.466;2024-01-15T01:27:46;-3.50;99.90
18974;DHT22;9621;48.690;9.466;2024-01-15T01:30:13;-2.80;99.90
18974;DHT22;9621;48.690;9.466;2024-01-15T01:32:40;-3.50;99.90
18974;DHT22;9621;48.690;9.466;2024-01-15T01:35:07;-1.70;99.90
18974;DHT22;9621;48.690;9.466;2024-01-15T01:37:34;-3.40;99.90
18974;DHT22;9621;48.690;9.466;2024-01-15T01:40:01;-3.40;99.90
18974;DHT22;9621;48.690;9.466;2024-01-15T01:42:30;-3.30;99.90
18974;DHT22;9621;48.690;9.466;2024-01-15T01:44:56;-3.40;99.90
18974;DHT22;9621;48.690;9.466;2024-01-15T01:47:24;-3.40;99.90
18974;DHT22;9621;48.690;9.466;2024-01-15T01:49:52;-3.40;99.90
18974;DHT22;9621;48.690;9.466;2024-01-15T01:52:19;-3.30;99.90
18974;DHT22;9621;48.690;9.466;2024-01-15T01:54:46;-3.30;99.90
18974;DHT22;9621;48.690;9.466;2024-01-15T01:57:13;-3.10;99.90
18974;DHT22;9621;48.690;9.466;2024-01-15T01:59:43;-3.00;99.90
18974;DHT22;9621;48.690;9.466;2024-01-15T02:02:11;-3.10;99.90
18974;DHT22;9621;48.690;9.466;2024-01-15T02:04:39;-3.00;99.90
18974;DHT22;9621;48.690;9.466;2024-01-15T02:07:06;-2.90;99.90
18974;DHT22;9621;48.690;9.466;2024-01-15T02:09:33;-2.80;99.90
18974;DHT22;9621;48.690;9.466;2024-01-15T02:12:00;-2.70;99.90
18974;DHT22;9621;48.690;9.466;2024-01-15T02:14:27;-2.60;99.90
18974;DHT22;9621;48.690;9.466;2024-01-15T02:16:55;-2.60;99.90
18974;DHT22;9621;48.690;9.466;2024-01-15T02:19:22;-1.60;99.90
18974;DHT22;9621;48.690;9.466;2024-01-15T02:21:50;-2.40;99.90
18974;DHT22;9621;48.690;9.466;2024-01-15T02:24:18;-2.40;99.90
18974;DHT22;9621;48.690;9.466;2024-01-15T02:26:45;-2.40;99.90
18974;DHT22;9621;48.690;9.466;2024-01-15T02:29:15;-2.40;99.90
18974;DHT22;9621;48.690;9.466;2024-01-15T02:31:42;-2.30;99.90
18974;DHT22;9621;48.690;9.466;2024-01-15T02:34:08;-2.20;99.90
18974;DHT22;9621;48.690;9.466;2024-01-15T02:36:35;-2.20;99.90
18974;DHT22;9621;48.690;9.466;2024-01-15T02:39:02;-2.20;99.90
18974;DHT22;9621;48.690;9.466;2024-01-15T02:41:31;-2.10;99.90
18974;DHT22;9621;48.690;9.466;2024-01-15T02:43:58;-2.10;99.90
18974;DHT22;9621;48.690;9.466;2024-01-15T02:46:25;-2.10;99.90
18974;DHT22;9621;48.690;9.466;2024-01-15T02:48:51;-2.00;99.90
18974;DHT22;9621;48.690;9.466;2024-01-15T02:51:18;-2.00;99.90
18974;DHT22;9621;48.690;9.466;2024-01-15T02:53:45;-1.90;99.90
18974;DHT22;9621;48.690;9.466;2024-01-15T02:56:12;-1.90;99.90
18974;DHT22;9621;48.690;9.466;2024-01-15T02:58:40;-2.00;99.90
18974;DHT22;9621;48.690;9.466;2024-01-15T03:01:08;-1.90;99.90
18974;DHT22;9621;48.690;9.466;2024-01-15T03:03:37;-1.90;99.90
18974;DHT22;9621;48.690;9.466;2024-01-15T03:06:06;-1.90;99.90
18974;DHT22;9621;48.690;9.466;2024-01-15T03:08:33;-1.90;99.90
18974;DHT22;9621;48.690;9.466;2024-01-15T03:11:00;-1.90;99.90
18974;DHT22;9621;48.690;9.466;2024-01-15T03:13:28;-1.90;99.90
18974;DHT22;9621;48.690;9.466;2024-01-15T03:15:56;-1.80;99.90
18974;DHT22;9621;48.690;9.466;2024-01-15T03:18:22;-1.90;99.90
18974;DHT22;9621;48.690;9.466;2024-01-15T03:20:49;-1.90;99.90
18974;DHT22;9621;48.690;9.466;2024-01-15T03:23:17;-1.90;99.90
18974;DHT22;9621;48.690;9.466;2024-01-15T03:25:43;-1.90;99.90
18974;DHT22;9621;48.690;9.466;2024-01-15T03:28:11;-2.00;99.90
18974;DHT22;9621;48.690;9.466;2024-01-15T03:30:38;-1.90;99.90
18974;DHT22;9621;48.690;9.466;2024-01-15T03:33:06;-2.00;99.90
18974;DHT22;9621;48.690;9.466;2024-01-15T03:35:33;-1.90;99.90
18974;DHT22;9621;48.690;9.466;2024-01-15T03:38:00;-2.00;99.90
18974;DHT22;9621;48.690;9.466;2024-01-15T03:40:27;-2.00;99.90
18974;DHT22;9621;48.690;9.466;2024-01-15T03:42:53;-2.00;99.90
18974;DHT22;9621;48.690;9.466;2024-01-15T03:45:20;-2.00;99.90
18974;DHT22;9621;48.690;9.466;2024-01-15T03:47:47;-2.10;99.90
18974;DHT22;9621;48.690;9.466;2024-01-15T03:50:16;-2.10;99.90
18974;DHT22;9621;48.690;9.466;2024-01-15T03:52:42;-2.10;99.90
18974;DHT22;9621;48.690;9.466;2024-01-15T03:55:09;-2.10;99.90
18974;DHT22;9621;48.690;9.466;2024-01-15T03:57:36;-2.10;99.90
18974;DHT22;9621;48.690;9.466;2024-01-15T04:00:04;-2.00;99.90
18974;DHT22;9621;48.690;9.466;2024-01-15T04:02:31;-2.20;99.90
18974;DHT22;9621;48.690;9.466;2024-01-15T04:04:58;-2.30;99.90
18974;DHT22;9621;48.690;9.466;2024-01-15T04:07:27;-2.30;99.90
18974;DHT22;9621;48.690;9.466;2024-01-15T04:09:54;-2.30;99.90
18974;DHT22;9621;48.690;9.466;2024-01-15T04:12:21;-2.20;99.90
18974;DHT22;9621;48.690;9.466;2024-01-15T04:14:47;-2.30;99.90
18974;DHT22;9621;48.690;9.466;2024-01-15T04:17:15;-2.30;99.90
18974;DHT22;9621;48.690;9.466;2024-01-15T04:19:43;-2.30;99.90
18974;DHT22;9621;48.690;9.466;2024-01-15T04:22:11;-2.20;99.90
18974;DHT22;9621;48.690;9.466;2024-01-15T04:24:39;-2.30;99.90
18974;DHT22;9621;48.690;9.466;2024-01-15T04:27:06;-2.20;99.90
18974;DHT22;9621;48.690;9.466;2024-01-15T04:29:33;-2.20;99.90
18974;DHT22;9621;48.690;9.466;2024-01-15T04:32:00;-2.20;99.90
18974;DHT22;9621;48.690;9.466;2024-01-15T04:34:27;-2.20;99.90
18974;DHT22;9621;48.690;9.466;2024-01-15T04:36:54;-2.20;99.90
18974;DHT22;9621;48.690;9.466;2024-01-15T04:39:20;-2.20;99.90
18974;DHT22;9621;48.690;9.466;2024-01-15T04:41:49;-2.20;99.90
18974;DHT22;9621;48.690;9.466;2024-01-15T04:44:16;-2.00;99.90
18974;DHT22;9621;48.690;9.466;2024-01-15T04:46:43;-2.20;99.90
18974;DHT22;9621;48.690;9.466;2024-01-15T04:49:10;-2.10;99.90
18974;DHT22;9621;48.690;9.466;2024-01-15T04:51:37;-2.20;99.90
18974;DHT22;9621;48.690;9.466;2024-01-15T04:54:04;-2.10;99.90
18974;DHT22;9621;48.690;9.466;2024-01-15T04:56:31;-2.10;99.90
18974;DHT22;9621;48.690;9.466;2024-01-15T04:58:59;-2.10;99.90
18974;DHT22;9621;48.690;9.466;2024-01-15T05:01:30;-2.10;99.90
18974;DHT22;9621;48.690;9.466;2024-01-15T05:03:57;-2.10;99.90
18974;DHT22;9621;48.690;9.466;2024-01-15T05:06:24;-2.00;99.90
18974;DHT22;9621;48.690;9.466;2024-01-15T05:08:51;-2.10;99.90
18974;DHT22;9621;48.690;9.466;2024-01-15T05:11:18;-2.00;99.90
18974;DHT22;9621;48.690;9.466;2024-01-15T05:13:45;-2.00;99.90
18974;DHT22;9621;48.690;9.466;2024-01-15T05:16:14;-2.00;99.90
18974;DHT22;9621;48.690;9.466;2024-01-15T05:18:41;-2.00;99.90
18974;DHT22;9621;48.690;9.466;2024-01-15T05:21:08;-2.00;99.90
18974;DHT22;9621;48.690;9.466;2024-01-15T05:23:35;-1.50;99.90
18974;DHT22;9621;48.690;9.466;2024-01-15T05:26:02;-1.90;99.90
18974;DHT22;9621;48.690;9.466;2024-01-15T05:28:29;-1.80;99.90
18974;DHT22;9621;48.690;9.466;2024-01-15T05:30:56;-1.80;99.90
18974;DHT22;9621;48.690;9.466;2024-01-15T05:33:24;-1.80;99.90
18974;DHT22;9621;48.690;9.466;2024-01-15T05:35:51;-1.70;99.90
18974;DHT22;9621;48.690;9.466;2024-01-15T05:38:19;-1.60;99.90
18974;DHT22;9621;48.690;9.466;2024-01-15T05:40:46;-1.70;99.90
18974;DHT22;9621;48.690;9.466;2024-01-15T05:43:13;-1.70;99.90
18974;DHT22;9621;48.690;9.466;2024-01-15T05:45:43;-1.60;99.90
18974;DHT22;9621;48.690;9.466;2024-01-15T05:48:10;-1.60;99.90
18974;DHT22;9621;48.690;9.466;2024-01-15T05:50:38;-1.50;99.90
18974;DHT22;9621;48.690;9.466;2024-01-15T05:53:05;-1.60;99.90
18974;DHT22;9621;48.690;9.466;2024-01-15T05:55:32;-1.50;99.90
18974;DHT22;9621;48.690;9.466;2024-01-15T05:57:59;-1.50;99.90
18974;DHT22;9621;48.690;9.466;2024-01-15T06:00:26;-1.20;99.90
18974;DHT22;9621;48.690;9.466;2024-01-15T06:02:53;-1.50;99.90
18974;DHT22;9621;48.690;9.466;2024-01-15T06:05:19;-1.50;99.90
18974;DHT22;9621;48.690;9.466;2024-01-15T06:07:48;-1.50;99.90
18974;DHT22;9621;48.690;9.466;2024-01-15T06:10:15;-1.50;99.90
18974;DHT22;9621;48.690;9.466;2024-01-15T06:12:43;-1.50;99.90
18974;DHT22;9621;48.690;9.466;2024-01-15T06:15:09;-1.40;99.90
18974;DHT22;9621;48.690;9.466;2024-01-15T06:17:37;-1.40;99.90
18974;DHT22;9621;48.690;9.466;2024-01-15T06:20:05;-1.40;99.90
18974;DHT22;9621;48.690;9.466;2024-01-15T06:22:32;-1.40;99.90
18974;DHT22;9621;48.690;9.466;2024-01-15T06:25:00;-1.40;99.90
18974;DHT22;9621;48.690;9.466;2024-01-15T06:27:27;-1.40;99.90
18974;DHT22;9621;48.690;9.466;2024-01-15T06:29:54;-1.40;99.90
18974;DHT22;9621;48.690;9.466;2024-01-15T06:32:21;-1.40;99.90
18974;DHT22;9621;48.690;9.466;2024-01-15T06:34:48;-1.30;99.90
18974;DHT22;9621;48.690;9.466;2024-01-15T06:37:15;-1.30;99.90
18974;DHT22;9621;48.690;9.466;2024-01-15T06:39:44;-1.10;99.90
18974;DHT22;9621;48.690;9.466;2024-01-15T06:42:12;-1.30;99.90
18974;DHT22;9621;48.690;9.466;2024-01-15T06:44:39;-1.30;99.90
18974;DHT22;9621;48.690;9.466;2024-01-15T06:47:06;-1.30;99.90
18974;DHT22;9621;48.690;9.466;2024-01-15T06:49:33;-0.80;99.90
18974;DHT22;9621;48.690;9.466;2024-01-15T06:52:00;-1.30;99.90
18974;DHT22;9621;48.690;9.466;2024-01-15T06:54:27;-1.30;99.90
18974;DHT22;9621;48.690;9.466;2024-01-15T06:56:54;-1.30;99.90
18974;DHT22;9621;48.690;9.466;2024-01-15T06:59:22;-1.30;99.90
18974;DHT22;9621;48.690;9.466;2024-01-15T07:01:50;-1.30;99.90
18974;DHT22;9621;48.690;9.466;2024-01-15T07:04:17;-1.20;99.90
18974;DHT22;9621;48.690;9.466;2024-01-15T07:06:44;-1.10;99.90
18974;DHT22;9621;48.690;9.466;2024-01-15T07:09:11;-1.10;99.90
18974;DHT22;9621;48.690;9.466;2024-01-15T07:11:38;-1.20;99.90
18974;DHT22;9621;48.690;9.466;2024-01-15T07:14:05;-1.30;99.90
18974;DHT22;9621;48.690;9.466;2024-01-15T07:16:33;-1.20;99.90
18974;DHT22;9621;48.690;9.466;2024-01-15T07:19:00;-1.20;99.90
18974;DHT22;9621;48.690;9.466;2024-01-15T07:21:27;-1.20;99.90
18974;DHT22;9621;48.690;9.466;2024-01-15T07:23:54;-1.20;99.90
18974;DHT22;9621;48.690;9.466;2024-01-15T07:26:21;-1.20;99.90
18974;DHT22;9621;48.690;9.466;2024-01-15T07:28:48;-1.20;99.90
18974;DHT22;9621;48.690;9.466;2024-01-15T07:31:15;-1.20;99.90
18974;DHT22;9621;48.690;9.466;2024-01-15T07:33:43;-1.10;99.90
18974;DHT22;9621;48.690;9.466;2024-01-15T07:36:11;-1.20;99.90
18974;DHT22;9621;48.690;9.466;2024-01-15T07:38:38;-1.10;99.90
18974;DHT22;9621;48.690;9.466;2024-01-15T07:41:05;-1.10;99.90
18974;DHT22;9621;48.690;9.466;2024-01-15T07:43:32;-1.10;99.90
18974;DHT22;9621;48.690;9.466;2024-01-15T07:45:59;-1.10;99.90
18974;DHT22;9621;48.690;9.466;2024-01-15T07:48:26;-1.00;99.90
18974;DHT22;9621;48.690;9.466;2024-01-15T07:50:55;-1.00;99.90
18974;DHT22;9621;48.690;9.466;2024-01-15T07:53:22;-1.00;99.90
18974;DHT22;9621;48.690;9.466;2024-01-15T07:55:49;-1.00;99.90
18974;DHT22;9621;48.690;9.466;2024-01-15T07:58:15;-1.00;99.90
18974;DHT22;9621;48.690;9.466;2024-01-15T08:00:42;-0.90;99.90
18974;DHT22;9621;48.690;9.466;2024-01-15T08:03:11;-0.90;99.90
18974;DHT22;9621;48.690;9.466;2024-01-15T08:05:38;-0.90;99.90
18974;DHT22;9621;48.690;9.466;2024-01-15T08:08:06;-1.70;99.90
18974;DHT22;9621;48.690;9.466;2024-01-15T08:10:33;-0.90;99.90
18974;DHT22;9621;48.690;9.466;2024-01-15T08:13:00;-0.90;99.90
18974;DHT22;9621;48.690;9.466;2024-01-15T08:15:27;-0.80;99.90
18974;DHT22;9621;48.690;9.466;2024-01-15T08:17:54;-0.80;99.90
18974;DHT22;9621;48.690;9.466;2024-01-15T08:20:21;-0.70;99.90
18974;DHT22;9621;48.690;9.466;2024-01-15T08:22:48;-0.70;99.90
18974;DHT22;9621;48.690;9.466;2024-01-15T08:25:16;-0.60;99.90
18974;DHT22;9621;48.690;9.466;2024-01-15T08:27:43;-0.60;99.90
18974;DHT22;9621;48.690;9.466;2024-01-15T08:30:11;-0.60;99.90
18974;DHT22;9621;48.690;9.466;2024-01-15T08:32:40;-0.60;99.90
18974;DHT22;9621;48.690;9.466;2024-01-15T08:35:08;-0.60;99.90
18974;DHT22;9621;48.690;9.466;2024-01-15T08:37:35;-0.50;99.90
18974;DHT22;9621;48.690;9.466;2024-01-15T08:40:02;-0.50;99.90
18974;DHT22;9621;48.690;9.466;2024-01-15T08:42:32;-0.50;99.90
18974;DHT22;9621;48.690;9.466;2024-01-15T08:44:58;-0.50;99.90
18974;DHT22;9621;48.690;9.466;2024-01-15T08:47:26;-0.50;99.90
18974;DHT22;9621;48.690;9.466;2024-01-15T08:49:53;-0.40;99.90
18974;DHT22;9621;48.690;9.466;2024-01-15T08:52:20;-0.20;99.90
18974;DHT22;9621;48.690;9.466;2024-01-15T08:54:47;-0.30;99.90
18974;DHT22;9621;48.690;9.466;2024-01-15T08:57:14;-0.30;99.90
18974;DHT22;9621;48.690;9.466;2024-01-15T08:59:43;-0.30;99.90
18974;DHT22;9621;48.690;9.466;2024-01-15T09:02:10;-0.20;99.90
18974;DHT22;9621;48.690;9.466;2024-01-15T09:04:37;-0.20;99.90
18974;DHT22;9621;48.690;9.466;2024-01-15T09:07:04;-0.10;99.90
18974;DHT22;9621;48.690;9.466;2024-01-15T09:09:31;-0.10;99.90
18974;DHT22;9621;48.690;9.466;2024-01-15T09:11:59;0.00;99.90
18974;DHT22;9621;48.690;9.466;2024-01-15T09:14:26;0.00;99.90
18974;DHT22;9621;48.690;9.466;2024-01-15T09:16:56;0.10;99.90
18974;DHT22;9621;48.690;9.466;2024-01-15T09:19:23;0.20;99.90
18974;DHT22;9621;48.690;9.466;2024-01-15T09:21:49;0.30;99.90
18974;DHT22;9621;48.690;9.466;2024-01-15T09:24:16;0.30;99.90
18974;DHT22;9621;48.690;9.466;2024-01-15T09:26:43;0.40;99.90
18974;DHT22;9621;48.690;9.466;2024-01-15T09:29:10;0.40;99.90
18974;DHT22;9621;48.690;9.466;2024-01-15T09:31:37;0.40;99.90
18974;DHT22;9621;48.690;9.466;2024-01-15T09:34:05;0.50;99.90
18974;DHT22;9621;48.690;9.466;2024-01-15T09:36:32;0.50;99.90
18974;DHT22;9621;48.690;9.466;2024-01-15T09:38:59;0.60;99.90
18974;DHT22;9621;48.690;9.466;2024-01-15T09:41:26;0.60;99.90
18974;DHT22;9621;48.690;9.466;2024-01-15T09:43:53;0.60;99.90
18974;DHT22;9621;48.690;9.466;2024-01-15T09:46:20;0.60;99.90
18974;DHT22;9621;48.690;9.466;2024-01-15T09:48:47;0.70;99.90
18974;DHT22;9621;48.690;9.466;2024-01-15T09:51:16;0.70;99.90
18974;DHT22;9621;48.690;9.466;2024-01-15T09:53:44;0.70;99.90
18974;DHT22;9621;48.690;9.466;2024-01-15T09:56:11;0.80;99.90
18974;DHT22;9621;48.690;9.466;2024-01-15T09:58:39;0.80;99.90
18974;DHT22;9621;48.690;9.466;2024-01-15T10:01:08;0.80;99.90
18974;DHT22;9621;48.690;9.466;2024-01-15T10:03:35;0.90;99.90
18974;DHT22;9621;48.690;9.466;2024-01-15T10:06:05;0.90;99.90
18974;DHT22;9621;48.690;9.466;2024-01-15T10:08:35;0.90;99.90
18974;DHT22;9621;48.690;9.466;2024-01-15T10:11:03;1.10;99.90
18974;DHT22;9621;48.690;9.466;2024-01-15T10:13:30;1.10;99.90
18974;DHT22;9621;48.690;9.466;2024-01-15T10:15:58;1.10;99.90
18974;DHT22;9621;48.690;9.466;2024-01-15T10:18:26;1.20;99.90
18974;DHT22;9621;48.690;9.466;2024-01-15T10:20:53;1.20;99.90
18974;DHT22;9621;48.690;9.466;2024-01-15T10:23:20;1.20;99.90
18974;DHT22;9621;48.690;9.466;2024-01-15T10:25:48;1.20;99.90
18974;DHT22;9621;48.690;9.466;2024-01-15T10:28:19;1.30;99.90
18974;DHT22;9621;48.690;9.466;2024-01-15T10:30:46;1.20;99.90
18974;DHT22;9621;48.690;9.466;2024-01-15T10:33:13;1.20;99.90
18974;DHT22;9621;48.690;9.466;2024-01-15T10:35:41;1.20;99.90
18974;DHT22;9621;48.690;9.466;2024-01-15T10:38:08;1.30;99.90
18974;DHT22;9621;48.690;9.466;2024-01-15T10:40:35;1.30;99.90
18974;DHT22;9621;48.690;9.466;2024-01-15T10:43:03;1.30;99.90
18974;DHT22;9621;48.690;9.466;2024-01-15T10:45:30;1.30;99.90
18974;DHT22;9621;48.690;9.466;2024-01-15T10:47:57;1.30;99.90
18974;DHT22;9621;48.690;9.466;2024-01-15T10:50:26;1.30;99.90
18974;DHT22;9621;48.690;9.466;2024-01-15T10:52:53;1.30;99.90
18974;DHT22;9621;48.690;9.466;2024-01-15T10:55:20;1.30;99.90
18974;DHT22;9621;48.690;9.466;2024-01-15T10:57:48;1.30;99.90
18974;DHT22;9621;48.690;9.466;2024-01-15T11:00:17;1.40;99.90
18974;DHT22;9621;48.690;9.466;2024-01-15T11:02:45;1.30;99.90
18974;DHT22;9621;48.690;9.466;2024-01-15T11:05:12;1.40;99.90
18974;DHT22;9621;48.690;9.466;2024-01-15T11:07:39;1.30;99.90
18974;DHT22;9621;48.690;9.466;2024-01-15T11:10:08;1.30;99.90
18974;DHT22;9621;48.690;9.466;2024-01-15T11:12:55;1.30;99.90
18974;DHT22;9621;48.690;9.466;2024-01-15T11:15:24;1.40;99.90
18974;DHT22;9621;48.690;9.466;2024-01-15T11:17:58;1.40;99.90
18974;DHT22;9621;48.690;9.466;2024-01-15T11:20:29;1.40;99.90
18974;DHT22;9621;48.690;9.466;2024-01-15T11:22:56;1.50;99.90
18974;DHT22;9621;48.690;9.466;2024-01-15T11:25:34;1.40;99.90
18974;DHT22;9621;48.690;9.466;2024-01-15T11:28:03;1.40;99.90
18974;DHT22;9621;48.690;9.466;2024-01-15T11:30:32;1.40;99.90
18974;DHT22;9621;48.690;9.466;2024-01-15T11:33:02;1.40;99.90
18974;DHT22;9621;48.690;9.466;2024-01-15T11:35:47;1.40;99.90
18974;DHT22;9621;48.690;9.466;2024-01-15T11:38:26;1.40;99.90
18974;DHT22;9621;48.690;9.466;2024-01-15T11:40:54;1.40;99.90
18974;DHT22;9621;48.690;9.466;2024-01-15T11:43:22;1.30;99.90
18974;DHT22;9621;48.690;9.466;2024-01-15T11:45:52;1.30;99.90
18974;DHT22;9621;48.690;9.466;2024-01-15T11:48:19;1.30;99.90
18974;DHT22;9621;48.690;9.466;2024-01-15T11:50:50;1.30;99.90
18974;DHT22;9621;48.690;9.466;2024-01-15T11:53:27;1.30;99.90
18974;DHT22;9621;48.690;9.466;2024-01-15T11:55:58;1.30;99.90
18974;DHT22;9621;48.690;9.466;2024-01-15T11:58:26;1.30;99.90
18974;DHT22;9621;48.690;9.466;2024-01-15T12:00:55;1.40;99.90
18974;DHT22;9621;48.690;9.466;2024-01-15T12:03:22;1.40;99.90
18974;DHT22;9621;48.690;9.466;2024-01-15T12:05:49;1.40;99.90
18974;DHT22;9621;48.690;9.466;2024-01-15T12:08:21;1.30;99.90
18974;DHT22;9621;48.690;9.466;2024-01-15T12:10:48;1.30;99.90
18974;DHT22;9621;48.690;9.466;2024-01-15T12:13:15;1.30;99.90
18974;DHT22;9621;48.690;9.466;2024-01-15T12:15:44;1.20;99.90
18974;DHT22;9621;48.690;9.466;2024-01-15T12:18:14;1.20;99.90
18974;DHT22;9621;48.690;9.466;2024-01-15T12:20:41;1.20;99.90
18974;DHT22;9621;48.690;9.466;2024-01-15T12:23:09;1.20;99.90
18974;DHT22;9621;48.690;9.466;2024-01-15T12:25:36;1.20;99.90
18974;DHT22;9621;48.690;9.466;2024-01-15T12:28:04;1.20;99.90
18974;DHT22;9621;48.690;9.466;2024-01-15T12:30:33;1.20;99.90
18974;DHT22;9621;48.690;9.466;2024-01-15T12:33:04;1.20;99.90
18974;DHT22;9621;48.690;9.466;2024-01-15T12:35:33;1.20;99.90
18974;DHT22;9621;48.690;9.466;2024-01-15T12:38:01;1.10;99.90
18974;DHT22;9621;48.690;9.466;2024-01-15T12:40:29;1.10;99.90
18974;DHT22;9621;48.690;9.466;2024-01-15T12:42:57;1.10;99.90
18974;DHT22;9621;48.690;9.466;2024-01-15T12:45:24;1.00;99.90
18974;DHT22;9621;48.690;9.466;2024-01-15T12:47:51;1.00;99.90
18974;DHT22;9621;48.690;9.466;2024-01-15T12:50:18;1.00;99.90
18974;DHT22;9621;48.690;9.466;2024-01-15T12:52:46;0.90;99.90
18974;DHT22;9621;48.690;9.466;2024-01-15T12:55:13;0.80;99.90
18974;DHT22;9621;48.690;9.466;2024-01-15T12:57:40;0.80;99.90
18974;DHT22;9621;48.690;9.466;2024-01-15T13:00:08;0.70;99.90
18974;DHT22;9621;48.690;9.466;2024-01-15T13:02:37;0.70;99.90
18974;DHT22;9621;48.690;9.466;2024-01-15T13:05:06;0.70;99.90
18974;DHT22;9621;48.690;9.466;2024-01-15T13:07:33;0.70;99.90
18974;DHT22;9621;48.690;9.466;2024-01-15T13:10:02;0.70;99.90
18974;DHT22;9621;48.690;9.466;2024-01-15T13:12:29;0.60;99.90
18974;DHT22;9621;48.690;9.466;2024-01-15T13:14:57;0.60;99.90
18974;DHT22;9621;48.690;9.466;2024-01-15T13:17:24;0.50;99.90
18974;DHT22;9621;48.690;9.466;2024-01-15T13:19:51;0.50;99.90
18974;DHT22;9621;48.690;9.466;2024-01-15T13:22:18;0.50;99.90
18974;DHT22;9621;48.690;9.466;2024-01-15T13:24:45;0.40;99.90
18974;DHT22;9621;48.690;9.466;2024-01-15T13:27:14;0.50;99.90
18974;DHT22;9621;48.690;9.466;2024-01-15T13:29:41;0.50;99.90
18974;DHT22;9621;48.690;9.466;2024-01-15T13:32:11;0.40;99.90
18974;DHT22;9621;48.690;9.466;2024-01-15T13:34:39;0.40;99.90
18974;DHT22;9621;48.690;9.466;2024-01-15T13:37:06;0.40;99.90
18974;DHT22;9621;48.690;9.466;2024-01-15T13:39:35;0.40;99.90
18974;DHT22;9621;48.690;9.466;2024-01-15T13:42:03;0.40;99.90
18974;DHT22;9621;48.690;9.466;2024-01-15T13:44:31;0.30;99.90
18974;DHT22;9621;48.690;9.466;2024-01-15T13:46:58;0.30;99.90
18974;DHT22;9621;48.690;9.466;2024-01-15T13:49:25;0.30;99.90
18974;DHT22;9621;48.690;9.466;2024-01-15T13:51:52;0.20;99.90
18974;DHT22;9621;48.690;9.466;2024-01-15T13:54:19;0.20;99.90
18974;DHT22;9621;48.690;9.466;2024-01-15T13:56:46;0.20;99.90
18974;DHT22;9621;48.690;9.466;2024-01-15T13:59:14;0.20;99.90
18974;DHT22;9621;48.690;9.466;2024-01-15T14:01:42;0.20;99.90
18974;DHT22;9621;48.690;9.466;2024-01-15T14:04:09;0.10;99.90
18974;DHT22;9621;48.690;9.466;2024-01-15T14:06:36;0.20;99.90
18974;DHT22;9621;48.690;9.466;2024-01-15T14:09:04;0.10;99.90
18974;DHT22;9621;48.690;9.466;2024-01-15T14:11:35;0.10;99.90
18974;DHT22;9621;48.690;9.466;2024-01-15T14:14:02;0.10;99.90
18974;DHT22;9621;48.690;9.466;2024-01-15T14:16:29;0.10;99.90
18974;DHT22;9621;48.690;9.466;2024-01-15T14:18:58;0.10;99.90
18974;DHT22;9621;48.690;9.466;2024-01-15T14:21:25;0.10;99.90
18974;DHT22;9621;48.690;9.466;2024-01-15T14:23:52;0.00;99.90
18974;DHT22;9621;48.690;9.466;2024-01-15T14:26:21;0.00;99.90
18974;DHT22;9621;48.690;9.466;2024-01-15T14:28:48;0.00;99.90
18974;DHT22;9621;48.690;9.466;2024-01-15T14:31:15;-0.10;99.90
18974;DHT22;9621;48.690;9.466;2024-01-15T14:33:42;-0.10;99.90
18974;DHT22;9621;48.690;9.466;2024-01-15T14:36:11;-0.10;99.90
18974;DHT22;9621;48.690;9.466;2024-01-15T14:38:38;-0.10;99.90
18974;DHT22;9621;48.690;9.466;2024-01-15T14:41:05;-0.20;99.90
18974;DHT22;9621;48.690;9.466;2024-01-15T14:43:32;-0.10;99.90
18974;DHT22;9621;48.690;9.466;2024-01-15T14:45:59;-0.20;99.90
18974;DHT22;9621;48.690;9.466;2024-01-15T14:48:26;-0.20;99.90
18974;DHT22;9621;48.690;9.466;2024-01-15T14:50:53;-0.20;99.90
18974;DHT22;9621;48.690;9.466;2024-01-15T14:53:21;-0.20;99.90
18974;DHT22;9621;48.690;9.466;2024-01-15T14:55:49;-0.20;99.90
18974;DHT22;9621;48.690;9.466;2024-01-15T14:58:16;-0.20;99.90
18974;DHT22;9621;48.690;9.466;2024-01-15T15:00:43;-0.20;99.90
18974;DHT22;9621;48.690;9.466;2024-01-15T15:03:11;-0.20;99.90
18974;DHT22;9621;48.690;9.466;2024-01-15T15:05:39;-0.20;99.90
18974;DHT22;9621;48.690;9.466;2024-01-15T15:08:06;-0.20;99.90
18974;DHT22;9621;48.690;9.466;2024-01-15T15:10:35;-0.30;99.90
18974;DHT22;9621;48.690;9.466;2024-01-15T15:13:02;-0.30;99.90
18974;DHT22;9621;48.690;9.466;2024-01-15T15:15:29;-0.30;99.90
18974;DHT22;9621;48.690;9.466;2024-01-15T15:17:56;-0.30;99.90
18974;DHT22;9621;48.690;9.466;2024-01-15T15:20:23;-0.30;99.90
18974;DHT22;9621;48.690;9.466;2024-01-15T15:22:50;-0.30;99.90
18974;DHT22;9621;48.690;9.466;2024-01-15T15:25:20;-0.40;99.90
18974;DHT22;9621;48.690;9.466;2024-01-15T15:27:48;-0.40;99.90
18974;DHT22;9621;48.690;9.466;2024-01-15T15:30:15;-0.40;99.90
18974;DHT22;9621;48.690;9.466;2024-01-15T15:32:42;-0.40;99.90
18974;DHT22;9621;48.690;9.466;2024-01-15T15:35:09;-0.40;99.90
18974;DHT22;9621;48.690;9.466;2024-01-15T15:37:36;-0.40;99.90
18974;DHT22;9621;48.690;9.466;2024-01-15T15:40:05;-0.40;99.90
18974;DHT22;9621;48.690;9.466;2024-01-15T15:42:34;-0.50;99.90
18974;DHT22;9621;48.690;9.466;2024-01-15T15:45:03;-0.60;99.90
18974;DHT22;9621;48.690;9.466;2024-01-15T15:47:30;-0.60;99.90
18974;DHT22;9621;48.690;9.466;2024-01-15T15:49:57;-0.60;99.90
18974;DHT22;9621;48.690;9.466;2024-01-15T15:52:24;-0.60;99.90
18974;DHT22;9621;48.690;9.466;2024-01-15T15:54:51;-0.70;99.90